createdAt,value
2022-08-30T00:02:19.435Z,2.70
2022-08-30T00:04:47.384Z,3.08
2022-08-30T00:07:15.066Z,2.65
2022-08-30T00:09:42.764Z,2.65
2022-08-30T00:12:11.693Z,2.60
2022-08-30T00:14:39.395Z,2.67
2022-08-30T00:17:07.010Z,2.05
2022-08-30T00:19:34.661Z,2.50
2022-08-30T00:22:02.347Z,2.70
2022-08-30T00:24:29.997Z,2.92
2022-08-30T00:26:57.625Z,3.10
2022-08-30T00:29:26.823Z,2.88
2022-08-30T00:31:54.473Z,3.15
2022-08-30T00:34:22.081Z,2.92
2022-08-30T00:36:49.733Z,2.17
2022-08-30T00:39:17.344Z,2.13
2022-08-30T00:41:45.001Z,2.90
2022-08-30T00:44:12.656Z,2.50
2022-08-30T00:46:41.748Z,3.05
2022-08-30T00:49:10.408Z,3.03
2022-08-30T00:51:39.445Z,2.90
2022-08-30T00:54:07.882Z,2.35
2022-08-30T00:56:36.075Z,2.42
2022-08-30T00:59:05.979Z,2.97
2022-08-30T01:01:34.328Z,2.90
2022-08-30T01:04:03.757Z,2.95
2022-08-30T01:06:32.920Z,2.90
2022-08-30T01:09:01.724Z,2.75
2022-08-30T01:11:29.475Z,2.83
2022-08-30T01:13:57.912Z,2.47
2022-08-30T01:16:27.293Z,2.83
2022-08-30T01:18:58.024Z,2.75
2022-08-30T01:21:30.084Z,3.22
2022-08-30T01:24:01.670Z,2.70
2022-08-30T01:26:29.877Z,2.70
2022-08-30T01:28:59.564Z,2.70
2022-08-30T01:31:27.296Z,3.08
2022-08-30T01:33:55.031Z,2.90
2022-08-30T01:36:22.947Z,3.15
2022-08-30T01:38:52.156Z,2.97
2022-08-30T01:41:21.949Z,2.47
2022-08-30T01:43:50.100Z,2.75
2022-08-30T01:46:18.898Z,2.38
2022-08-30T01:48:51.979Z,2.90
2022-08-30T01:51:23.453Z,2.90
2022-08-30T01:53:51.212Z,3.00
2022-08-30T01:56:18.976Z,2.47
2022-08-30T01:58:47.988Z,2.92
2022-08-30T02:01:16.897Z,2.67
2022-08-30T02:03:45.237Z,3.15
2022-08-30T02:06:14.035Z,3.10
2022-08-30T02:08:42.049Z,2.55
2022-08-30T02:11:10.189Z,2.70
2022-08-30T02:13:38.607Z,2.60
2022-08-30T02:16:08.845Z,2.72
2022-08-30T02:18:36.933Z,3.03
2022-08-30T02:21:04.680Z,2.67
2022-08-30T02:23:32.369Z,2.60
2022-08-30T02:26:00.288Z,3.08
2022-08-30T02:28:28.377Z,2.95
2022-08-30T02:30:56.105Z,3.38
2022-08-30T02:33:25.104Z,2.92
2022-08-30T02:35:52.777Z,2.20
2022-08-30T02:38:20.394Z,2.95
2022-08-30T02:40:48.048Z,2.67
2022-08-30T02:43:16.138Z,3.03
2022-08-30T02:45:43.981Z,2.22
2022-08-30T02:48:11.647Z,2.97
2022-08-30T02:50:42.354Z,3.15
2022-08-30T02:53:10.002Z,2.50
2022-08-30T02:55:41.752Z,2.72
2022-08-30T02:58:10.574Z,3.25
2022-08-30T03:00:38.192Z,3.65
2022-08-30T03:03:07.389Z,3.05
2022-08-30T03:05:35.333Z,2.78
2022-08-30T03:08:09.352Z,2.50
2022-08-30T03:10:38.345Z,3.15
2022-08-30T03:13:07.618Z,3.50
2022-08-30T03:15:35.841Z,3.08
2022-08-30T03:18:04.012Z,2.72
2022-08-30T03:20:31.664Z,2.83
2022-08-30T03:22:59.309Z,3.00
2022-08-30T03:25:28.359Z,2.80
2022-08-30T03:27:55.976Z,2.78
2022-08-30T03:30:23.633Z,3.60
2022-08-30T03:32:51.467Z,2.92
2022-08-30T03:35:19.336Z,3.33
2022-08-30T03:37:47.198Z,3.35
2022-08-30T03:40:17.023Z,3.05
2022-08-30T03:42:48.657Z,3.15
2022-08-30T03:45:17.622Z,2.58
2022-08-30T03:47:45.857Z,2.78
2022-08-30T03:50:15.479Z,3.28
2022-08-30T03:52:43.139Z,2.78
2022-08-30T03:55:10.798Z,2.97
2022-08-30T03:57:40.549Z,2.90
2022-08-30T04:00:13.876Z,3.05
2022-08-30T04:02:41.736Z,3.00
2022-08-30T04:05:09.922Z,2.90
2022-08-30T04:07:37.882Z,3.13
2022-08-30T04:10:05.956Z,3.10
2022-08-30T04:12:33.679Z,2.30
2022-08-30T04:15:01.308Z,2.72
2022-08-30T04:17:30.340Z,2.90
2022-08-30T04:19:58.110Z,2.33
2022-08-30T04:22:25.731Z,3.13
2022-08-30T04:24:53.400Z,3.20
2022-08-30T04:27:21.049Z,2.63
2022-08-30T04:29:49.084Z,3.45
2022-08-30T04:32:17.288Z,2.90
2022-08-30T04:34:46.332Z,2.53
2022-08-30T04:37:17.253Z,2.70
2022-08-30T04:39:46.264Z,2.38
2022-08-30T04:42:13.899Z,2.90
2022-08-30T04:44:41.574Z,3.33
2022-08-30T04:47:10.104Z,2.30
2022-08-30T04:49:37.861Z,2.75
2022-08-30T04:52:08.878Z,3.08
2022-08-30T04:54:36.536Z,3.30
2022-08-30T04:57:04.192Z,3.60
2022-08-30T04:59:31.820Z,3.28
2022-08-30T05:01:59.555Z,3.20
2022-08-30T05:04:27.365Z,3.55
2022-08-30T05:06:55.077Z,3.58
2022-08-30T05:09:24.069Z,2.92
2022-08-30T05:11:51.729Z,3.40
2022-08-30T05:14:19.312Z,3.25
2022-08-30T05:16:47.301Z,3.30
2022-08-30T05:19:14.985Z,3.28
2022-08-30T05:21:42.612Z,3.35
2022-08-30T05:24:10.353Z,2.78
2022-08-30T05:26:39.912Z,3.00
2022-08-30T05:29:07.863Z,3.50
2022-08-30T05:31:37.094Z,3.22
2022-08-30T05:34:05.120Z,3.47
2022-08-30T05:36:35.077Z,3.08
2022-08-30T05:39:02.764Z,3.40
2022-08-30T05:41:33.837Z,3.40
2022-08-30T05:44:03.769Z,2.97
2022-08-30T05:49:06.407Z,3.30
2022-08-30T05:51:35.357Z,2.78
2022-08-30T05:54:03.968Z,3.33
2022-08-30T05:56:32.906Z,3.42
2022-08-30T05:59:00.774Z,3.78
2022-08-30T06:01:31.757Z,2.40
2022-08-30T06:04:03.855Z,3.90
2022-08-30T06:06:32.921Z,4.05
2022-08-30T06:09:00.558Z,3.67
2022-08-30T06:11:28.382Z,3.85
2022-08-30T06:13:56.286Z,3.88
2022-08-30T06:16:24.984Z,3.83
2022-08-30T06:18:54.655Z,4.20
2022-08-30T06:21:23.396Z,4.05
2022-08-30T06:23:51.395Z,2.78
2022-08-30T06:26:19.088Z,3.15
2022-08-30T06:28:46.851Z,4.03
2022-08-30T06:31:15.788Z,3.97
2022-08-30T06:33:43.735Z,3.47
2022-08-30T06:36:15.128Z,4.13
2022-08-30T06:38:42.865Z,4.35
2022-08-30T06:41:11.330Z,4.60
2022-08-30T06:43:39.516Z,4.28
2022-08-30T06:46:08.600Z,3.72
2022-08-30T06:48:36.269Z,4.30
2022-08-30T06:51:04.063Z,3.90
2022-08-30T06:53:33.178Z,4.28
2022-08-30T06:56:02.529Z,5.22
2022-08-30T06:58:30.744Z,4.30
2022-08-30T07:00:58.984Z,3.22
2022-08-30T07:03:27.342Z,1.00
2022-08-30T07:05:55.377Z,1.10
2022-08-30T07:08:23.585Z,1.33
2022-08-30T07:10:54.021Z,1.27
2022-08-30T07:13:23.986Z,1.48
2022-08-30T07:15:52.267Z,1.35
2022-08-30T07:18:37.438Z,1.50
2022-08-30T07:21:09.532Z,1.27
2022-08-30T07:23:37.545Z,0.73
2022-08-30T07:26:07.695Z,0.80
2022-08-30T07:28:35.950Z,0.65
2022-08-30T07:31:03.665Z,0.80
2022-08-30T07:33:31.316Z,0.50
2022-08-30T07:35:59.403Z,0.90
2022-08-30T07:38:30.314Z,4.05
2022-08-30T07:40:59.176Z,4.70
2022-08-30T07:43:28.269Z,3.65
2022-08-30T07:45:56.027Z,4.45
2022-08-30T07:48:23.744Z,3.42
2022-08-30T07:50:54.913Z,4.38
2022-08-30T07:53:25.661Z,1.27
2022-08-30T07:55:53.389Z,1.33
2022-08-30T07:58:21.061Z,0.55
2022-08-30T08:00:50.248Z,0.40
2022-08-30T08:03:17.933Z,1.13
2022-08-30T08:05:46.049Z,1.33
2022-08-30T08:08:14.134Z,0.90
2022-08-30T08:10:42.807Z,0.65
2022-08-30T08:13:10.608Z,1.08
2022-08-30T08:15:38.366Z,0.70
2022-08-30T08:18:07.648Z,0.70
2022-08-30T08:20:35.572Z,1.10
2022-08-30T08:23:03.218Z,1.02
2022-08-30T08:25:30.857Z,1.05
2022-08-30T08:27:58.753Z,0.77
2022-08-30T08:30:26.369Z,1.30
2022-08-30T08:32:54.261Z,1.15
2022-08-30T08:35:23.381Z,1.08
2022-08-30T08:37:50.974Z,1.42
2022-08-30T08:40:20.573Z,0.63
2022-08-30T08:42:57.619Z,1.20
2022-08-30T08:45:30.029Z,0.60
2022-08-30T08:48:01.390Z,1.35
2022-08-30T08:50:33.286Z,1.17
2022-08-30T08:53:45.236Z,1.00
2022-08-30T08:56:13.074Z,1.13
2022-08-30T08:58:43.349Z,1.10
2022-08-30T09:01:12.296Z,0.65
2022-08-30T09:03:40.240Z,1.10
2022-08-30T09:06:16.716Z,0.98
2022-08-30T09:08:44.376Z,1.00
2022-08-30T09:11:16.695Z,0.93
2022-08-30T09:13:44.309Z,0.82
2022-08-30T09:16:32.024Z,0.80
2022-08-30T09:18:59.785Z,1.08
2022-08-30T09:21:29.639Z,1.48
2022-08-30T09:23:57.965Z,1.50
2022-08-30T09:26:30.287Z,1.13
2022-08-30T09:28:59.192Z,0.80
2022-08-30T09:31:28.881Z,1.08
2022-08-30T09:33:56.803Z,0.55
2022-08-30T09:36:27.236Z,0.90
2022-08-30T09:39:00.165Z,1.13
2022-08-30T09:41:29.430Z,0.82
2022-08-30T09:44:06.092Z,0.85
2022-08-30T09:46:33.859Z,1.48
2022-08-30T09:49:01.536Z,0.70
2022-08-30T09:51:40.724Z,0.85
2022-08-30T09:54:18.337Z,1.05
2022-08-30T09:56:51.479Z,0.73
2022-08-30T09:59:26.291Z,0.85
2022-08-30T10:01:55.900Z,0.70
2022-08-30T10:04:29.256Z,2.28
2022-08-30T10:07:02.193Z,0.60
2022-08-30T10:09:34.647Z,1.13
2022-08-30T10:12:07.256Z,0.63
2022-08-30T10:14:45.169Z,1.48
2022-08-30T10:17:17.128Z,1.95
2022-08-30T10:19:57.741Z,1.02
2022-08-30T10:22:27.348Z,1.98
2022-08-30T10:25:01.714Z,1.85
2022-08-30T10:27:30.884Z,1.13
2022-08-30T10:30:02.586Z,2.40
2022-08-30T10:32:33.376Z,2.88
2022-08-30T10:35:04.370Z,2.70
2022-08-30T10:37:33.573Z,2.17
2022-08-30T10:43:18.036Z,1.30
2022-08-30T10:45:47.004Z,2.30
2022-08-30T10:48:17.857Z,2.17
2022-08-30T10:50:49.877Z,2.90
2022-08-30T10:53:19.696Z,3.10
2022-08-30T10:55:51.105Z,2.13
2022-08-30T10:58:19.575Z,2.47
2022-08-30T11:00:55.417Z,2.33
2022-08-30T11:03:31.804Z,2.28
2022-08-30T11:06:07.105Z,2.35
2022-08-30T11:08:47.065Z,2.22
2022-08-30T11:11:20.104Z,1.45
2022-08-30T11:13:49.696Z,2.47
2022-08-30T11:16:20.307Z,2.55
2022-08-30T11:18:51.048Z,3.13
2022-08-30T11:21:22.603Z,2.80
2022-08-30T11:24:01.027Z,1.83
2022-08-30T11:26:48.302Z,2.92
2022-08-30T11:29:30.922Z,2.08
2022-08-30T11:31:59.853Z,1.50
2022-08-30T11:34:46.467Z,2.40
2022-08-30T11:37:33.715Z,1.50
2022-08-30T11:40:04.189Z,2.88
2022-08-30T11:42:34.044Z,1.83
2022-08-30T11:45:21.016Z,1.83
2022-08-30T11:47:50.944Z,1.70
2022-08-30T11:50:20.208Z,2.42
2022-08-30T11:52:51.741Z,2.15
2022-08-30T11:55:27.929Z,1.45
2022-08-30T11:57:59.717Z,2.00
2022-08-30T12:00:28.873Z,0.95
2022-08-30T12:03:00.022Z,0.68
2022-08-30T12:05:48.115Z,2.05
2022-08-30T12:08:31.825Z,1.63
2022-08-30T12:11:01.525Z,1.88
2022-08-30T12:13:44.010Z,1.17
2022-08-30T12:16:12.958Z,1.67
2022-08-30T12:18:45.618Z,1.40
2022-08-30T12:21:28.101Z,1.15
2022-08-30T12:23:59.815Z,1.35
2022-08-30T12:26:32.941Z,1.50
2022-08-30T12:29:12.076Z,1.42
2022-08-30T12:31:41.969Z,2.00
2022-08-30T12:34:18.479Z,1.50
2022-08-30T12:36:52.540Z,1.50
2022-08-30T12:39:21.393Z,1.90
2022-08-30T12:41:49.065Z,1.60
2022-08-30T12:44:18.276Z,1.55
2022-08-30T12:46:48.403Z,1.98
2022-08-30T12:49:18.956Z,2.25
2022-08-30T12:51:47.218Z,1.67
2022-08-30T12:54:18.313Z,1.67
2022-08-30T12:56:49.966Z,1.42
2022-08-30T12:59:36.500Z,1.77
2022-08-30T13:02:07.775Z,1.67
2022-08-30T13:04:50.262Z,1.85
2022-08-30T13:07:42.245Z,1.80
2022-08-30T13:10:15.121Z,1.95
2022-08-30T13:13:01.279Z,1.52
2022-08-30T13:15:32.432Z,1.20
2022-08-30T13:18:14.978Z,1.80
2022-08-30T13:20:47.937Z,1.58
2022-08-30T13:23:23.173Z,1.80
2022-08-30T13:25:51.166Z,1.70
2022-08-30T13:28:18.889Z,1.45
2022-08-30T13:30:46.520Z,2.33
2022-08-30T13:33:16.660Z,1.20
2022-08-30T13:35:44.536Z,1.40
2022-08-30T13:38:13.536Z,1.35
2022-08-30T13:40:41.341Z,1.38
2022-08-30T13:43:09.590Z,1.05
2022-08-30T13:45:41.974Z,1.67
2022-08-30T13:48:11.770Z,1.05
2022-08-30T13:50:39.577Z,1.40
2022-08-30T13:53:09.137Z,1.50
2022-08-30T13:55:39.256Z,1.88
2022-08-30T13:58:08.595Z,1.33
2022-08-30T14:00:38.060Z,1.77
2022-08-30T14:03:06.544Z,1.73
2022-08-30T14:06:09.974Z,2.08
2022-08-30T14:11:16.053Z,1.40
2022-08-30T14:16:35.593Z,1.75
2022-08-30T14:19:03.489Z,2.35
2022-08-30T14:21:33.420Z,1.45
2022-08-30T14:24:01.085Z,1.23
2022-08-30T14:26:33.466Z,1.60
2022-08-30T14:29:01.732Z,1.48
2022-08-30T14:31:30.194Z,1.27
2022-08-30T14:34:00.725Z,1.60
2022-08-30T14:36:28.349Z,1.63
2022-08-30T14:38:56.025Z,1.25
2022-08-30T14:41:23.868Z,1.67
2022-08-30T14:43:53.996Z,1.67
2022-08-30T14:46:25.596Z,1.42
2022-08-30T14:48:54.035Z,1.20
2022-08-30T14:51:23.565Z,1.60
2022-08-30T14:53:52.676Z,1.33
2022-08-30T14:56:21.554Z,1.20
2022-08-30T14:58:49.886Z,1.50
2022-08-30T15:01:19.117Z,0.98
2022-08-30T15:03:47.319Z,1.13
2022-08-30T15:06:15.083Z,1.75
2022-08-30T15:08:47.611Z,1.30
2022-08-30T15:11:17.538Z,1.50
2022-08-30T15:13:45.473Z,1.55
2022-08-30T15:16:14.284Z,1.45
2022-08-30T15:18:43.507Z,0.85
2022-08-30T15:21:11.601Z,1.60
2022-08-30T15:23:39.521Z,1.50
2022-08-30T15:26:08.117Z,0.93
2022-08-30T15:28:37.076Z,1.50
2022-08-30T15:31:08.729Z,1.27
2022-08-30T15:33:37.280Z,1.58
2022-08-30T15:36:06.551Z,1.35
2022-08-30T15:38:35.660Z,1.30
2022-08-30T15:41:05.092Z,1.40
2022-08-30T15:43:33.888Z,1.38
2022-08-30T15:46:15.436Z,1.27
2022-08-30T15:48:45.616Z,1.00
2022-08-30T15:51:16.652Z,1.20
2022-08-30T15:53:44.353Z,1.60
2022-08-30T15:56:12.120Z,1.35
2022-08-30T15:58:39.790Z,1.50
2022-08-30T16:01:08.448Z,1.58
2022-08-30T16:03:37.944Z,1.30
2022-08-30T16:06:07.545Z,1.20
2022-08-30T16:08:36.546Z,1.60
2022-08-30T16:11:06.219Z,1.83
2022-08-30T16:13:34.340Z,1.48
2022-08-30T16:16:02.493Z,1.65
2022-08-30T16:18:30.404Z,1.10
2022-08-30T16:21:07.723Z,1.45
2022-08-30T16:23:37.572Z,1.30
2022-08-30T16:26:05.908Z,1.40
2022-08-30T16:28:35.812Z,1.50
2022-08-30T16:31:04.580Z,1.20
2022-08-30T16:33:33.205Z,1.30
2022-08-30T16:36:00.831Z,1.50
2022-08-30T16:38:28.862Z,1.48
2022-08-30T16:40:58.384Z,1.70
2022-08-30T16:43:26.505Z,1.35
2022-08-30T16:45:54.081Z,1.40
2022-08-30T16:48:21.812Z,1.33
2022-08-30T16:50:49.707Z,1.17
2022-08-30T16:53:17.445Z,1.30
2022-08-30T16:55:45.832Z,1.25
2022-08-30T16:58:18.898Z,1.52
2022-08-30T17:00:49.174Z,1.13
2022-08-30T17:03:17.259Z,1.60
2022-08-30T17:05:45.312Z,1.13
2022-08-30T17:08:14.262Z,1.50
2022-08-30T17:10:43.857Z,1.25
2022-08-30T17:13:18.922Z,1.58
2022-08-30T17:15:48.024Z,1.25
2022-08-30T17:18:16.643Z,0.73
2022-08-30T17:20:44.738Z,1.67
2022-08-30T17:23:12.493Z,1.40
2022-08-30T17:25:41.221Z,0.95
2022-08-30T17:28:08.911Z,1.20
2022-08-30T17:30:38.700Z,1.15
2022-08-30T17:33:08.327Z,1.42
2022-08-30T17:35:36.029Z,1.50
2022-08-30T17:38:03.859Z,1.30
2022-08-30T17:40:31.781Z,1.35
2022-08-30T17:42:59.530Z,1.23
2022-08-30T17:45:27.168Z,1.17
2022-08-30T17:47:57.716Z,1.23
2022-08-30T17:50:28.115Z,1.10
2022-08-30T17:52:56.458Z,1.30
2022-08-30T17:55:24.020Z,1.40
2022-08-30T17:57:52.107Z,0.88
2022-08-30T18:00:20.101Z,1.05
2022-08-30T18:02:49.119Z,1.00
2022-08-30T18:05:18.162Z,1.15
2022-08-30T18:07:53.155Z,1.10
2022-08-30T18:10:28.438Z,1.27
2022-08-30T18:13:00.643Z,1.33
2022-08-30T18:15:28.235Z,1.08
2022-08-30T18:17:56.289Z,1.10
2022-08-30T18:20:26.352Z,1.30
2022-08-30T18:22:54.430Z,1.55
2022-08-30T18:25:22.421Z,1.50
2022-08-30T18:27:58.342Z,1.40
2022-08-30T18:30:33.237Z,1.40
2022-08-30T18:33:02.985Z,1.52
2022-08-30T18:35:36.470Z,1.23
2022-08-30T18:38:04.322Z,1.42
2022-08-30T18:40:32.134Z,1.75
2022-08-30T18:42:59.760Z,1.50
2022-08-30T18:45:27.406Z,1.75
2022-08-30T18:47:55.062Z,1.63
2022-08-30T18:50:23.398Z,1.60
2022-08-30T18:52:53.704Z,1.55
2022-08-30T18:55:23.808Z,1.60
2022-08-30T18:57:51.624Z,1.33
2022-08-30T19:00:19.512Z,1.98
2022-08-30T19:02:47.841Z,1.17
2022-08-30T19:05:16.891Z,1.40
2022-08-30T19:07:44.785Z,1.25
2022-08-30T19:10:14.644Z,1.02
2022-08-30T19:12:42.476Z,1.45
2022-08-30T19:15:11.613Z,1.33
2022-08-30T19:17:41.281Z,1.17
2022-08-30T19:20:09.868Z,1.70
2022-08-30T19:23:05.889Z,1.27
2022-08-30T19:25:27.024Z,1.50
2022-08-30T19:27:56.600Z,1.50
2022-08-30T19:30:29.675Z,1.30
2022-08-30T19:32:57.883Z,1.40
2022-08-30T19:35:25.708Z,1.63
2022-08-30T19:37:53.337Z,1.35
2022-08-30T19:40:22.127Z,1.50
2022-08-30T19:42:51.475Z,1.25
2022-08-30T19:48:07.480Z,1.02
2022-08-30T19:50:35.667Z,1.15
2022-08-30T19:53:04.007Z,1.52
2022-08-30T19:55:31.904Z,1.42
2022-08-30T19:58:01.073Z,1.50
2022-08-30T20:00:31.508Z,0.90
2022-08-30T20:02:59.499Z,1.83
2022-08-30T20:05:28.915Z,1.10
2022-08-30T20:07:58.206Z,1.13
2022-08-30T20:10:26.350Z,0.85
2022-08-30T20:12:54.026Z,1.20
2022-08-30T20:15:23.636Z,1.10
2022-08-30T20:18:05.083Z,1.10
2022-08-30T20:20:36.575Z,1.10
2022-08-30T20:23:05.020Z,1.00
2022-08-30T20:25:32.720Z,1.20
2022-08-30T20:28:01.275Z,1.50
2022-08-30T20:30:30.287Z,1.30
2022-08-30T20:32:58.103Z,1.55
2022-08-30T20:35:25.818Z,1.65
2022-08-30T20:37:53.492Z,1.38
2022-08-30T20:40:21.904Z,1.15
2022-08-30T20:42:49.815Z,1.15
2022-08-30T20:45:17.964Z,1.20
2022-08-30T20:47:46.896Z,0.93
2022-08-30T20:50:16.339Z,1.05
2022-08-30T20:52:44.201Z,1.27
2022-08-30T20:55:12.576Z,1.10
2022-08-30T20:57:40.624Z,1.00
2022-08-30T21:00:10.496Z,1.10
2022-08-30T21:02:42.731Z,1.08
2022-08-30T21:05:16.525Z,1.02
2022-08-30T21:07:44.251Z,1.20
2022-08-30T21:10:12.392Z,1.10
2022-08-30T21:12:40.474Z,0.90
2022-08-30T21:15:34.075Z,1.00
2022-08-30T21:17:56.526Z,1.40
2022-08-30T21:20:25.535Z,1.00
2022-08-30T21:22:53.152Z,0.93
2022-08-30T21:25:20.971Z,1.25
2022-08-30T21:27:48.581Z,1.20
2022-08-30T21:30:16.633Z,1.20
2022-08-30T21:32:44.300Z,1.00
2022-08-30T21:35:29.348Z,0.93
2022-08-30T21:37:58.395Z,1.20
2022-08-30T21:40:26.067Z,1.00
2022-08-30T21:42:53.765Z,1.23
2022-08-30T21:45:21.379Z,1.30
2022-08-30T21:47:48.994Z,1.02
2022-08-30T21:50:16.637Z,1.10
2022-08-30T21:52:44.483Z,1.10
2022-08-30T21:55:13.472Z,1.17
2022-08-30T21:57:41.090Z,1.05
2022-08-30T22:00:09.548Z,1.13
2022-08-30T22:02:37.213Z,1.15
2022-08-30T22:05:05.115Z,1.08
2022-08-30T22:07:32.949Z,1.10
2022-08-30T22:10:00.594Z,1.00
2022-08-30T22:12:29.600Z,1.20
2022-08-30T22:14:57.248Z,1.25
2022-08-30T22:17:26.027Z,1.23
2022-08-30T22:19:54.228Z,1.08
2022-08-30T22:22:21.956Z,1.27
2022-08-30T22:24:49.583Z,1.08
2022-08-30T22:27:17.231Z,1.15
2022-08-30T22:29:46.910Z,1.27
2022-08-30T22:32:14.617Z,1.00
2022-08-30T22:34:42.316Z,1.20
2022-08-30T22:37:10.115Z,1.10
2022-08-30T22:39:37.804Z,0.98
2022-08-30T22:42:05.625Z,1.15
2022-08-30T22:44:33.253Z,1.10
2022-08-30T22:47:02.541Z,1.00
2022-08-30T22:49:30.324Z,1.27
2022-08-30T22:51:57.989Z,1.02
2022-08-30T22:54:25.599Z,1.30
2022-08-30T22:56:53.228Z,1.55
2022-08-30T22:59:21.097Z,1.20
2022-08-30T23:01:58.111Z,1.38
2022-08-30T23:04:27.212Z,1.20
2022-08-30T23:06:54.862Z,1.17
2022-08-30T23:09:22.837Z,1.40
2022-08-30T23:11:50.443Z,1.38
2022-08-30T23:14:18.113Z,1.08
2022-08-30T23:16:46.921Z,1.20
2022-08-30T23:19:14.737Z,1.50
2022-08-30T23:21:44.098Z,1.60
2022-08-30T23:24:29.307Z,1.02
2022-08-30T23:27:14.393Z,1.33
2022-08-30T23:29:59.525Z,1.00
2022-08-30T23:32:44.394Z,1.40
2022-08-30T23:35:31.339Z,1.27
2022-08-30T23:38:17.877Z,1.30
2022-08-30T23:41:03.060Z,1.55
2022-08-30T23:43:47.908Z,1.15
2022-08-30T23:46:33.380Z,1.20
2022-08-30T23:49:18.234Z,1.10
2022-08-30T23:52:03.499Z,1.20
2022-08-30T23:54:50.183Z,1.50
2022-08-30T23:57:35.311Z,1.70
